createdAt,value
2022-10-03T00:02:14.208Z,2.00
2022-10-03T00:05:11.528Z,2.10
2022-10-03T00:07:53.606Z,2.20
2022-10-03T00:10:45.533Z,2.47
2022-10-03T00:13:21.572Z,2.30
2022-10-03T00:15:57.604Z,2.72
2022-10-03T00:18:35.677Z,2.23
2022-10-03T00:21:27.250Z,2.50
2022-10-03T00:24:06.222Z,2.20
2022-10-03T00:26:50.029Z,2.47
2022-10-03T00:29:36.998Z,2.40
2022-10-03T00:32:24.401Z,2.47
2022-10-03T00:35:16.225Z,2.37
2022-10-03T00:38:00.655Z,1.97
2022-10-03T00:40:46.478Z,2.30
2022-10-03T00:43:46.517Z,2.10
2022-10-03T00:46:19.937Z,2.30
2022-10-03T00:49:06.962Z,2.43
2022-10-03T00:51:45.925Z,2.03
2022-10-03T00:54:25.299Z,2.43
2022-10-03T00:57:14.218Z,2.20
2022-10-03T00:59:55.521Z,2.23
2022-10-03T01:02:31.415Z,2.13
2022-10-03T01:05:24.455Z,2.30
2022-10-03T01:08:29.832Z,2.00
2022-10-03T01:11:09.694Z,2.10
2022-10-03T01:14:00.106Z,2.03
2022-10-03T01:16:53.551Z,1.87
2022-10-03T01:19:52.927Z,1.90
2022-10-03T01:22:41.018Z,2.00
2022-10-03T01:25:14.807Z,1.87
2022-10-03T01:28:25.361Z,1.90
2022-10-03T01:31:02.486Z,2.30
2022-10-03T01:33:40.483Z,2.20
2022-10-03T01:36:19.770Z,2.40
2022-10-03T01:38:55.885Z,2.30
2022-10-03T01:41:28.920Z,2.17
2022-10-03T01:44:06.182Z,2.30
2022-10-03T01:46:40.194Z,2.10
2022-10-03T01:49:36.439Z,2.10
2022-10-03T01:52:12.007Z,2.20
2022-10-03T01:54:51.526Z,1.97
2022-10-03T01:57:30.090Z,1.90
2022-10-03T02:00:05.749Z,1.80
2022-10-03T02:02:53.597Z,1.70
2022-10-03T02:05:35.759Z,1.50
2022-10-03T02:08:18.173Z,1.70
2022-10-03T02:11:03.307Z,1.50
2022-10-03T02:13:37.032Z,1.60
2022-10-03T02:16:10.018Z,1.30
2022-10-03T02:18:54.670Z,1.80
2022-10-03T02:21:30.438Z,1.40
2022-10-03T02:24:21.107Z,1.23
2022-10-03T02:27:12.944Z,1.30
2022-10-03T02:30:06.811Z,1.30
2022-10-03T02:32:40.515Z,1.17
2022-10-03T02:35:26.308Z,1.30
2022-10-03T02:38:18.195Z,1.30
2022-10-03T02:41:06.696Z,1.40
2022-10-03T02:43:54.027Z,1.30
2022-10-03T02:46:46.221Z,1.30
2022-10-03T02:49:38.319Z,1.33
2022-10-03T02:52:30.092Z,1.30
2022-10-03T02:55:14.293Z,1.40
2022-10-03T02:58:02.621Z,1.50
2022-10-03T03:00:54.781Z,1.47
2022-10-03T03:03:46.914Z,1.40
2022-10-03T03:06:39.068Z,1.13
2022-10-03T03:09:12.190Z,1.53
2022-10-03T03:11:59.116Z,1.50
2022-10-03T03:14:38.609Z,1.47
2022-10-03T03:17:33.979Z,1.30
2022-10-03T03:20:12.162Z,1.60
2022-10-03T03:22:53.851Z,1.70
2022-10-03T03:25:36.567Z,1.50
2022-10-03T03:28:11.509Z,1.40
2022-10-03T03:30:55.812Z,1.23
2022-10-03T03:33:38.829Z,1.27
2022-10-03T03:36:16.394Z,1.53
2022-10-03T03:39:28.015Z,1.60
2022-10-03T03:42:03.587Z,1.70
2022-10-03T03:44:55.750Z,1.60
2022-10-03T03:47:46.494Z,1.37
2022-10-03T03:50:25.898Z,1.43
2022-10-03T03:52:58.899Z,1.67
2022-10-03T03:55:40.709Z,1.13
2022-10-03T03:58:32.435Z,1.30
2022-10-03T04:01:14.302Z,1.60
2022-10-03T04:04:05.811Z,1.60
2022-10-03T04:06:47.886Z,1.37
2022-10-03T04:09:39.160Z,1.50
2022-10-03T04:12:21.788Z,1.60
2022-10-03T04:15:06.949Z,1.70
2022-10-03T04:18:07.867Z,1.80
2022-10-03T04:21:04.152Z,2.20
2022-10-03T04:23:58.080Z,2.13
2022-10-03T04:26:37.789Z,1.60
2022-10-03T04:29:29.519Z,1.83
2022-10-03T04:32:18.456Z,2.20
2022-10-03T04:34:57.534Z,1.87
2022-10-03T04:37:54.783Z,2.00
2022-10-03T04:40:39.475Z,1.73
2022-10-03T04:43:34.634Z,1.63
2022-10-03T04:46:27.908Z,1.80
2022-10-03T04:49:12.426Z,1.90
2022-10-03T04:51:55.308Z,1.83
2022-10-03T04:54:48.978Z,2.00
2022-10-03T04:57:26.102Z,1.97
2022-10-03T05:00:20.387Z,1.90
2022-10-03T05:03:13.721Z,2.00
2022-10-03T05:06:11.712Z,2.17
2022-10-03T05:08:51.647Z,1.80
2022-10-03T05:11:37.717Z,1.90
2022-10-03T05:14:37.585Z,2.07
2022-10-03T05:17:19.757Z,1.93
2022-10-03T05:20:14.556Z,2.00
2022-10-03T05:22:50.315Z,2.50
2022-10-03T05:25:43.306Z,1.80
2022-10-03T05:28:32.291Z,2.03
2022-10-03T05:31:16.794Z,1.93
2022-10-03T05:34:01.408Z,2.00
2022-10-03T05:36:53.987Z,1.87
2022-10-03T05:39:45.700Z,1.90
2022-10-03T05:42:35.647Z,2.30
2022-10-03T05:45:12.238Z,2.07
2022-10-03T05:48:01.101Z,2.40
2022-10-03T05:50:48.059Z,2.07
2022-10-03T05:53:29.825Z,1.93
2022-10-03T05:56:03.963Z,1.97
2022-10-03T05:58:37.109Z,2.10
2022-10-03T06:01:18.470Z,2.13
2022-10-03T06:03:57.474Z,2.23
2022-10-03T06:06:48.853Z,1.93
2022-10-03T06:09:40.723Z,1.90
2022-10-03T06:12:26.158Z,1.87
2022-10-03T06:15:18.199Z,2.10
2022-10-03T06:18:01.378Z,1.90
2022-10-03T06:20:46.503Z,1.93
2022-10-03T06:23:38.575Z,2.38
2022-10-03T06:26:28.920Z,2.23
2022-10-03T06:29:12.486Z,2.30
2022-10-03T06:32:00.428Z,1.93
2022-10-03T06:35:01.086Z,2.33
2022-10-03T06:38:00.381Z,1.97
2022-10-03T06:40:52.318Z,1.80
2022-10-03T06:43:43.625Z,2.20
2022-10-03T06:46:22.876Z,2.30
2022-10-03T06:49:14.792Z,2.40
2022-10-03T06:52:11.171Z,2.60
2022-10-03T06:55:04.457Z,2.50
2022-10-03T06:57:56.196Z,2.27
2022-10-03T07:00:35.548Z,2.37
2022-10-03T07:06:21.861Z,2.83
2022-10-03T07:09:04.100Z,2.93
2022-10-03T07:11:56.000Z,2.37
2022-10-03T07:14:38.306Z,2.83
2022-10-03T07:17:17.569Z,2.90
2022-10-03T07:19:56.429Z,2.80
2022-10-03T07:22:38.980Z,3.27
2022-10-03T07:25:24.180Z,3.78
2022-10-03T07:27:57.251Z,2.90
2022-10-03T07:30:49.036Z,3.50
2022-10-03T07:33:22.191Z,3.43
2022-10-03T07:36:32.895Z,3.43
2022-10-03T07:39:25.946Z,3.23
2022-10-03T07:42:13.072Z,3.70
2022-10-03T07:45:09.429Z,3.37
2022-10-03T07:54:14.058Z,4.17
2022-10-03T07:57:05.182Z,3.87
2022-10-03T07:59:45.871Z,3.80
2022-10-03T08:08:21.547Z,4.23
2022-10-03T08:11:14.877Z,4.30
2022-10-03T08:13:51.180Z,3.90
2022-10-03T08:16:54.592Z,6.13
2022-10-03T08:19:34.215Z,5.00
2022-10-03T08:22:20.136Z,4.17
2022-10-03T08:25:03.188Z,4.60
2022-10-03T08:27:54.846Z,5.80
2022-10-03T08:30:47.154Z,4.80
2022-10-03T08:33:44.655Z,4.13
2022-10-03T08:36:17.925Z,4.77
2022-10-03T08:38:56.483Z,4.97
2022-10-03T08:41:39.319Z,4.40
2022-10-03T08:44:31.670Z,4.50
2022-10-03T08:47:28.645Z,4.40
2022-10-03T08:50:22.162Z,5.13
2022-10-03T08:53:22.248Z,4.43
2022-10-03T08:56:10.998Z,4.17
2022-10-03T08:58:44.373Z,4.47
2022-10-03T09:01:23.986Z,4.77
2022-10-03T09:04:11.465Z,5.00
2022-10-03T09:07:17.144Z,5.03
2022-10-03T09:10:16.317Z,4.77
2022-10-03T09:12:53.889Z,4.37
2022-10-03T09:15:33.628Z,4.63
2022-10-03T09:18:29.266Z,4.33
2022-10-03T09:21:12.677Z,4.10
2022-10-03T09:23:55.176Z,4.10
2022-10-03T09:26:48.941Z,5.28
2022-10-03T09:29:42.831Z,4.33
2022-10-03T09:32:25.134Z,3.73
2022-10-03T09:35:07.055Z,3.93
2022-10-03T09:38:00.237Z,3.87
2022-10-03T09:40:41.136Z,4.07
2022-10-03T09:43:34.713Z,3.70
2022-10-03T09:46:21.568Z,4.00
2022-10-03T09:48:57.888Z,3.93
2022-10-03T09:51:39.454Z,3.80
2022-10-03T09:54:22.441Z,3.63
2022-10-03T09:57:07.326Z,3.43
2022-10-03T10:00:01.947Z,4.03
2022-10-03T10:02:54.241Z,2.87
2022-10-03T10:05:45.980Z,3.33
2022-10-03T10:08:39.107Z,3.20
2022-10-03T10:11:30.552Z,2.70
2022-10-03T10:14:18.602Z,2.90
2022-10-03T10:17:10.443Z,2.70
2022-10-03T10:19:59.307Z,2.20
2022-10-03T10:22:51.840Z,2.30
2022-10-03T10:25:25.079Z,2.27
2022-10-03T10:27:58.010Z,2.03
2022-10-03T10:30:50.070Z,2.30
2022-10-03T10:33:41.926Z,2.40
2022-10-03T10:36:27.388Z,2.37
2022-10-03T10:39:16.709Z,1.77
2022-10-03T10:42:08.504Z,2.27
2022-10-03T10:45:00.534Z,2.10
2022-10-03T10:47:52.462Z,1.87
2022-10-03T10:50:37.546Z,2.03
2022-10-03T10:53:12.219Z,1.67
2022-10-03T10:56:08.193Z,1.70
2022-10-03T10:58:59.750Z,1.53
2022-10-03T11:01:35.859Z,1.47
2022-10-03T11:04:27.951Z,1.67
2022-10-03T11:07:04.036Z,1.33
2022-10-03T11:10:00.470Z,1.40
2022-10-03T11:13:00.795Z,1.37
2022-10-03T11:15:35.932Z,1.30
2022-10-03T11:18:28.061Z,1.10
2022-10-03T11:21:20.992Z,1.38
2022-10-03T11:24:14.846Z,1.38
2022-10-03T11:26:54.631Z,1.70
2022-10-03T11:29:46.267Z,1.80
2022-10-03T11:32:19.673Z,1.50
2022-10-03T11:35:11.088Z,1.63
2022-10-03T11:37:50.639Z,1.27
2022-10-03T11:40:24.136Z,1.27
2022-10-03T11:43:35.717Z,1.65
2022-10-03T11:46:08.674Z,1.20
2022-10-03T11:48:50.096Z,1.80
2022-10-03T11:51:26.246Z,1.23
2022-10-03T11:54:13.280Z,1.60
2022-10-03T11:57:02.497Z,6.03
2022-10-03T11:59:36.218Z,1.48
2022-10-03T12:02:28.413Z,1.45
2022-10-03T12:05:27.889Z,1.00
2022-10-03T12:08:40.935Z,0.80
2022-10-03T12:11:32.839Z,0.90
2022-10-03T12:14:24.723Z,1.23
2022-10-03T12:17:12.271Z,0.95
2022-10-03T12:19:45.378Z,7.63
2022-10-03T12:22:18.684Z,1.60
2022-10-03T12:24:54.983Z,3.10
2022-10-03T12:27:31.446Z,1.45
2022-10-03T12:30:12.162Z,1.05
2022-10-03T12:32:51.557Z,1.07
2022-10-03T12:35:35.908Z,1.07
2022-10-03T12:38:25.000Z,1.00
2022-10-03T12:41:01.734Z,1.33
2022-10-03T12:43:37.976Z,0.90
2022-10-03T12:46:23.540Z,1.10
2022-10-03T12:49:09.953Z,1.27
2022-10-03T12:51:55.095Z,1.27
2022-10-03T12:54:41.188Z,1.07
2022-10-03T12:57:35.553Z,1.10
2022-10-03T13:00:20.945Z,1.30
2022-10-03T13:03:15.907Z,1.70
2022-10-03T13:06:07.037Z,1.20
2022-10-03T13:08:42.596Z,1.52
2022-10-03T13:11:18.611Z,1.05
2022-10-03T13:14:10.491Z,1.00
2022-10-03T13:16:59.942Z,1.00
2022-10-03T13:19:45.974Z,1.42
2022-10-03T13:22:37.311Z,1.33
2022-10-03T13:25:31.881Z,1.10
2022-10-03T13:28:10.474Z,1.03
2022-10-03T13:31:14.085Z,1.30
2022-10-03T13:33:56.593Z,0.90
2022-10-03T13:36:40.885Z,1.13
2022-10-03T13:39:16.341Z,1.20
2022-10-03T13:41:55.430Z,1.00
2022-10-03T13:44:44.190Z,1.10
2022-10-03T13:47:25.669Z,0.80
2022-10-03T13:50:06.141Z,0.57
2022-10-03T13:52:44.408Z,0.90
2022-10-03T13:55:45.042Z,0.80
2022-10-03T13:58:36.961Z,1.00
2022-10-03T14:01:48.799Z,1.10
2022-10-03T14:04:33.019Z,1.10
2022-10-03T14:07:14.512Z,0.90
2022-10-03T14:09:47.555Z,1.10
2022-10-03T14:12:54.187Z,1.00
2022-10-03T14:15:49.004Z,0.90
2022-10-03T14:18:56.493Z,0.93
2022-10-03T14:21:57.451Z,1.20
2022-10-03T14:24:39.606Z,0.90
2022-10-03T14:27:29.006Z,0.77
2022-10-03T14:30:18.481Z,0.83
2022-10-03T14:33:16.929Z,0.93
2022-10-03T14:36:11.395Z,0.80
2022-10-03T14:39:05.013Z,1.00
2022-10-03T14:41:47.558Z,0.90
2022-10-03T14:44:38.008Z,1.20
2022-10-03T14:47:29.892Z,2.20
2022-10-03T14:50:21.789Z,1.00
2022-10-03T14:53:06.301Z,1.57
2022-10-03T14:56:02.755Z,1.20
2022-10-03T14:59:02.889Z,0.70
2022-10-03T15:01:44.422Z,0.90
2022-10-03T15:04:47.292Z,3.17
2022-10-03T15:07:35.834Z,1.70
2022-10-03T15:10:15.293Z,2.30
2022-10-03T15:13:10.014Z,0.90
2022-10-03T15:15:57.949Z,0.60
2022-10-03T15:18:40.404Z,0.77
2022-10-03T15:21:17.978Z,1.00
2022-10-03T15:24:16.324Z,0.80
2022-10-03T15:27:03.045Z,0.53
2022-10-03T15:29:39.542Z,1.30
2022-10-03T15:32:34.237Z,0.93
2022-10-03T15:35:22.421Z,1.20
2022-10-03T15:38:09.879Z,1.20
2022-10-03T15:41:10.041Z,0.90
2022-10-03T15:44:04.837Z,0.87
2022-10-03T15:46:53.119Z,0.90
2022-10-03T15:49:59.537Z,0.80
2022-10-03T15:52:53.130Z,0.67
2022-10-03T15:55:36.621Z,0.70
2022-10-03T15:58:17.834Z,0.90
2022-10-03T16:01:04.347Z,0.90
2022-10-03T16:03:42.760Z,0.60
2022-10-03T16:06:22.013Z,0.70
2022-10-03T16:09:17.038Z,0.97
2022-10-03T16:12:14.282Z,1.00
2022-10-03T16:15:16.979Z,0.87
2022-10-03T16:18:00.768Z,1.00
2022-10-03T16:20:42.418Z,2.53
2022-10-03T16:23:22.417Z,2.10
2022-10-03T16:26:00.311Z,13.53
2022-10-03T16:28:47.144Z,1.90
2022-10-03T16:31:28.740Z,1.43
2022-10-03T16:34:06.841Z,1.30
2022-10-03T16:36:44.544Z,2.03
2022-10-03T16:39:22.238Z,2.20
2022-10-03T16:41:55.836Z,1.60
2022-10-03T16:44:29.074Z,1.53
2022-10-03T16:47:03.508Z,2.10
2022-10-03T16:50:09.096Z,2.00
2022-10-03T16:52:43.909Z,1.90
2022-10-03T16:55:28.993Z,1.70
2022-10-03T16:58:05.290Z,1.70
2022-10-03T17:01:04.082Z,1.40
2022-10-03T17:03:47.493Z,1.03
2022-10-03T17:06:21.827Z,1.30
2022-10-03T17:08:56.531Z,1.47
2022-10-03T17:11:30.103Z,1.30
2022-10-03T17:14:06.099Z,1.43
2022-10-03T17:16:51.865Z,1.50
2022-10-03T17:19:31.613Z,1.90
2022-10-03T17:22:11.255Z,1.77
2022-10-03T17:24:54.157Z,1.97
2022-10-03T17:27:30.306Z,2.10
2022-10-03T17:30:14.211Z,1.83
2022-10-03T17:32:53.636Z,1.80
2022-10-03T17:35:46.200Z,2.00
2022-10-03T17:38:48.276Z,2.13
2022-10-03T17:41:27.580Z,1.83
2022-10-03T17:44:00.581Z,2.43
2022-10-03T17:46:45.060Z,1.80
2022-10-03T17:49:24.455Z,1.50
2022-10-03T17:51:58.140Z,1.63
2022-10-03T17:54:38.911Z,1.43
2022-10-03T17:57:17.046Z,1.30
2022-10-03T17:59:55.293Z,1.17
2022-10-03T18:02:46.769Z,1.20
2022-10-03T18:05:21.070Z,1.00
2022-10-03T18:07:55.371Z,1.03
2022-10-03T18:10:34.472Z,1.10
2022-10-03T18:13:10.663Z,1.00
2022-10-03T18:15:55.940Z,1.30
2022-10-03T18:18:55.377Z,1.27
2022-10-03T18:21:28.413Z,1.20
2022-10-03T18:24:04.425Z,1.70
2022-10-03T18:26:54.937Z,1.20
2022-10-03T18:29:34.215Z,1.37
2022-10-03T18:32:07.275Z,1.47
2022-10-03T18:34:59.700Z,1.40
2022-10-03T18:37:32.613Z,1.20
2022-10-03T18:40:06.042Z,1.60
2022-10-03T18:42:39.795Z,1.47
2022-10-03T18:45:27.287Z,1.47
2022-10-03T18:48:03.283Z,2.00
2022-10-03T18:50:51.606Z,2.30
2022-10-03T18:53:36.110Z,1.80
2022-10-03T18:56:13.947Z,2.00
2022-10-03T18:58:52.761Z,2.20
2022-10-03T19:01:30.718Z,2.30
2022-10-03T19:04:11.857Z,2.27
2022-10-03T19:06:50.697Z,2.20
2022-10-03T19:09:27.911Z,2.33
2022-10-03T19:12:09.492Z,2.10
2022-10-03T19:14:45.518Z,1.10
2022-10-03T19:17:18.521Z,1.13
2022-10-03T19:19:54.208Z,1.10
2022-10-03T19:22:32.699Z,1.00
2022-10-03T19:25:06.716Z,0.90
2022-10-03T19:27:46.383Z,1.00
2022-10-03T19:30:24.153Z,1.10
2022-10-03T19:32:57.154Z,1.17
2022-10-03T19:35:30.947Z,1.00
2022-10-03T19:38:04.307Z,0.90
2022-10-03T19:40:42.193Z,0.93
2022-10-03T19:43:34.094Z,0.80
2022-10-03T19:46:16.590Z,0.70
2022-10-03T19:48:49.670Z,1.00
2022-10-03T19:51:26.442Z,0.60
2022-10-03T19:54:00.786Z,0.77
2022-10-03T19:56:35.565Z,0.80
2022-10-03T19:59:18.643Z,0.90
2022-10-03T20:01:51.695Z,0.60
2022-10-03T20:04:36.326Z,0.87
2022-10-03T20:07:13.503Z,0.80
2022-10-03T20:10:00.880Z,0.90
2022-10-03T20:12:39.286Z,1.00
2022-10-03T20:15:24.988Z,1.10
2022-10-03T20:18:00.617Z,0.97
2022-10-03T20:20:34.127Z,0.93
2022-10-03T20:23:08.261Z,1.00
2022-10-03T20:25:43.886Z,1.07
2022-10-03T20:28:23.421Z,0.80
2022-10-03T20:30:56.471Z,1.00
2022-10-03T20:33:31.810Z,1.50
2022-10-03T20:36:10.265Z,0.97
2022-10-03T20:38:49.509Z,0.80
2022-10-03T20:41:25.763Z,0.90
2022-10-03T20:44:17.888Z,0.90
2022-10-03T20:46:51.966Z,0.70
2022-10-03T20:49:32.660Z,1.20
2022-10-03T20:52:07.683Z,1.00
2022-10-03T20:54:51.162Z,1.10
2022-10-03T20:57:42.562Z,1.30
2022-10-03T21:00:15.485Z,1.23
2022-10-03T21:03:02.002Z,1.23
2022-10-03T21:05:36.885Z,1.40
2022-10-03T21:08:26.548Z,1.60
2022-10-03T21:11:00.705Z,1.50
2022-10-03T21:13:41.411Z,1.60
2022-10-03T21:16:21.022Z,0.93
2022-10-03T21:18:57.566Z,1.20
2022-10-03T21:21:39.465Z,1.10
2022-10-03T21:24:19.536Z,1.17
2022-10-03T21:26:58.302Z,1.43
2022-10-03T21:29:32.962Z,1.40
2022-10-03T21:32:09.139Z,1.33
2022-10-03T21:34:54.795Z,1.43
2022-10-03T21:37:31.679Z,1.40
2022-10-03T21:40:16.966Z,0.90
2022-10-03T21:43:08.873Z,1.20
2022-10-03T21:45:57.110Z,1.00
2022-10-03T21:48:34.974Z,1.40
2022-10-03T21:51:17.230Z,1.33
2022-10-03T21:53:50.134Z,1.60
2022-10-03T21:56:42.254Z,1.40
2022-10-03T21:59:24.574Z,1.10
2022-10-03T22:02:10.836Z,1.30
2022-10-03T22:05:07.325Z,1.30
2022-10-03T22:07:41.175Z,1.10
2022-10-03T22:10:21.284Z,1.03
2022-10-03T22:12:59.626Z,1.40
2022-10-03T22:15:53.996Z,1.10
2022-10-03T22:18:29.588Z,1.40
2022-10-03T22:21:07.798Z,1.33
2022-10-03T22:23:51.405Z,1.10
2022-10-03T22:26:32.423Z,1.07
2022-10-03T22:29:25.470Z,1.00
2022-10-03T22:32:03.301Z,1.40
2022-10-03T22:34:36.251Z,1.30
2022-10-03T22:37:09.798Z,1.37
2022-10-03T22:39:43.186Z,1.03
2022-10-03T22:42:17.088Z,1.13
2022-10-03T22:44:52.620Z,1.20
2022-10-03T22:47:27.011Z,1.07
2022-10-03T22:50:06.373Z,1.10
2022-10-03T22:52:42.053Z,1.00
2022-10-03T22:55:16.027Z,1.20
2022-10-03T22:57:49.217Z,1.00
2022-10-03T23:00:26.913Z,1.10
2022-10-03T23:03:04.891Z,1.13
2022-10-03T23:05:44.318Z,1.10
2022-10-03T23:08:35.589Z,1.00
2022-10-03T23:11:14.375Z,0.93
2022-10-03T23:13:48.347Z,1.03
2022-10-03T23:16:33.701Z,1.10
2022-10-03T23:19:09.791Z,0.90
2022-10-03T23:21:47.195Z,1.10
2022-10-03T23:24:29.458Z,1.03
2022-10-03T23:27:22.686Z,1.30
2022-10-03T23:30:29.365Z,1.10
2022-10-03T23:33:02.523Z,1.00
2022-10-03T23:35:38.311Z,0.87
2022-10-03T23:38:31.548Z,1.30
2022-10-03T23:41:05.894Z,1.03
2022-10-03T23:43:40.310Z,1.13
2022-10-03T23:46:20.986Z,1.00
2022-10-03T23:48:58.959Z,1.05
2022-10-03T23:51:36.907Z,0.80
2022-10-03T23:54:12.891Z,1.07
2022-10-03T23:56:47.726Z,1.00
2022-10-03T23:59:24.858Z,0.97
